Bloomington (BMI/KBMI)

Map

Destinations

Information

Location
Bloomington, IL
Local Time
20:43 / 8:43 pm
GMT Time
02:43 / 2:43 am
Gates
Unassigned
No FAA reported delays
METAR KBMI 170156Z 17007KT 1/2SM R20/2200V2600FT -RA FG OVC003 07/07 A2992 RMK AO2 SLP158 P0001 T00720067
TAF KBMI 162332Z 1700/1724 15011KT 1/4SM -RA FG OVC003 TEMPO 1700/1702 3/4SM SHRA BR FM170200 16010KT 1/4SM -RA FG OVC003 FM170800 24013KT 1/4SM -DZ FG OVC003 FM171600 27014KT 1/2SM -DZ FG OVC003 FM171800 26015KT 4SM BR OVC005
  • No charts available